createdAt,value
2018-12-08T00:01:59.803Z,100233.00
2018-12-08T00:04:34.504Z,100240.00
2018-12-08T00:07:12.539Z,100240.00
2018-12-08T00:09:47.163Z,100232.00
2018-12-08T00:12:21.369Z,100241.00
2018-12-08T00:14:55.294Z,100243.00
2018-12-08T00:17:29.810Z,100239.00
2018-12-08T00:20:05.149Z,100239.00
2018-12-08T00:22:39.576Z,100251.00
2018-12-08T00:25:14.258Z,100239.00
2018-12-08T00:27:53.239Z,100235.00
2018-12-08T00:36:59.879Z,100259.00
2018-12-08T00:39:34.189Z,100241.00
2018-12-08T00:42:21.824Z,100241.00
2018-12-08T00:44:56.286Z,100246.00
2018-12-08T00:47:30.087Z,100232.00
2018-12-08T00:50:04.541Z,100239.00
2018-12-08T00:52:38.567Z,100232.00
2018-12-08T00:55:12.761Z,100226.00
2018-12-08T00:57:47.284Z,100221.00
2018-12-08T01:00:21.672Z,100227.00
2018-12-08T01:02:54.377Z,100227.00
2018-12-08T01:05:42.101Z,100238.00
2018-12-08T01:08:16.888Z,100241.00
2018-12-08T01:10:50.998Z,100243.00
2018-12-08T01:13:25.289Z,100240.00
2018-12-08T01:15:59.458Z,100244.00
2018-12-08T01:18:33.981Z,100248.00
2018-12-08T01:21:08.125Z,100247.00
2018-12-08T01:23:42.213Z,100244.00
2018-12-08T01:26:16.496Z,100241.00
2018-12-08T01:28:50.616Z,100253.00
2018-12-08T01:31:32.549Z,100252.00
2018-12-08T01:34:07.121Z,100249.00
2018-12-08T01:36:45.250Z,100244.00
2018-12-08T01:39:19.569Z,100245.00
2018-12-08T01:41:53.781Z,100247.00
2018-12-08T01:44:27.836Z,100252.00
2018-12-08T01:47:02.212Z,100243.00
2018-12-08T01:49:36.209Z,100242.00
2018-12-08T01:52:10.189Z,100240.00
2018-12-08T01:55:01.901Z,100240.00
2018-12-08T01:57:35.791Z,100229.00
2018-12-08T02:00:10.275Z,100228.00
2018-12-08T02:02:42.236Z,100225.00
2018-12-08T02:05:16.327Z,100233.00
2018-12-08T02:07:50.444Z,100230.00
2018-12-08T02:10:24.582Z,100234.00
2018-12-08T02:12:59.075Z,100229.00
2018-12-08T02:15:33.636Z,100223.00
2018-12-08T02:18:07.725Z,100224.00
2018-12-08T02:20:41.697Z,100216.00
2018-12-08T02:23:15.983Z,100216.00
2018-12-08T02:25:50.040Z,100209.00
2018-12-08T02:31:23.794Z,100201.00
2018-12-08T02:33:57.792Z,100199.00
2018-12-08T02:36:32.207Z,100189.00
2018-12-08T02:39:06.948Z,100188.00
2018-12-08T02:49:28.568Z,100173.00
2018-12-08T02:55:02.481Z,100178.00
2018-12-08T02:57:36.418Z,100174.00
2018-12-08T03:00:14.600Z,100168.00
2018-12-08T03:02:48.564Z,100183.00
2018-12-08T03:05:35.937Z,100162.00
2018-12-08T03:08:09.846Z,100164.00
2018-12-08T03:10:44.784Z,100156.00
2018-12-08T03:13:42.889Z,100140.00
2018-12-08T03:16:17.381Z,100127.00
2018-12-08T03:18:51.463Z,100137.00
2018-12-08T03:21:25.648Z,100146.00
2018-12-08T03:23:59.529Z,100119.00
2018-12-08T03:26:33.811Z,100134.00
2018-12-08T03:32:18.750Z,100122.00
2018-12-08T03:35:06.154Z,100129.00
2018-12-08T03:37:40.897Z,100131.00
2018-12-08T03:40:14.809Z,100136.00
2018-12-08T03:42:48.938Z,100109.00
2018-12-08T03:48:29.846Z,100119.00
2018-12-08T03:51:04.634Z,100111.00
2018-12-08T03:53:37.367Z,100113.00
2018-12-08T03:56:17.529Z,100113.00
2018-12-08T03:58:51.517Z,100108.00
2018-12-08T04:01:25.758Z,100110.00
2018-12-08T04:03:59.923Z,100092.00
2018-12-08T04:06:34.515Z,100105.00
2018-12-08T04:09:17.225Z,100101.00
2018-12-08T04:11:51.624Z,100095.00
2018-12-08T04:17:25.566Z,100092.00
2018-12-08T04:19:57.770Z,100084.00
2018-12-08T04:22:34.816Z,100081.00
2018-12-08T04:25:08.803Z,100084.00
2018-12-08T04:27:42.998Z,100083.00
2018-12-08T04:30:17.039Z,100073.00
2018-12-08T04:32:51.081Z,100089.00
2018-12-08T04:35:25.052Z,100073.00
2018-12-08T04:37:59.331Z,100080.00
2018-12-08T04:40:42.266Z,100080.00
2018-12-08T04:43:33.169Z,100064.00
2018-12-08T04:46:07.696Z,100068.00
2018-12-08T05:14:57.888Z,100065.00
2018-12-08T05:17:31.980Z,100053.00
2018-12-08T05:20:06.181Z,100062.00
2018-12-08T05:22:40.167Z,100068.00
2018-12-08T05:25:14.349Z,100059.00
2018-12-08T05:27:48.756Z,100057.00
2018-12-08T05:30:22.647Z,100053.00
2018-12-08T05:32:56.817Z,100044.00
2018-12-08T05:35:34.169Z,100051.00
2018-12-08T05:38:08.273Z,100056.00
2018-12-08T05:40:42.532Z,100050.00
2018-12-08T05:43:16.647Z,100049.00
2018-12-08T05:45:48.687Z,100046.00
2018-12-08T05:48:22.701Z,100046.00
2018-12-08T05:51:01.920Z,100034.00
2018-12-08T05:53:36.394Z,100035.00
2018-12-08T05:56:10.737Z,100025.00
2018-12-08T05:58:44.853Z,100026.00
2018-12-08T06:01:32.132Z,100025.00
2018-12-08T06:04:06.008Z,100019.00
2018-12-08T06:06:40.282Z,100026.00
2018-12-08T06:09:14.221Z,100031.00
2018-12-08T06:12:01.464Z,100028.00
2018-12-08T06:14:34.298Z,100031.00
2018-12-08T06:17:08.629Z,100038.00
2018-12-08T06:19:49.403Z,100033.00
2018-12-08T06:22:23.929Z,100024.00
2018-12-08T06:24:58.046Z,100023.00
2018-12-08T06:27:34.084Z,100023.00
2018-12-08T06:30:08.843Z,100015.00
2018-12-08T06:32:46.362Z,100014.00
2018-12-08T06:35:20.582Z,100011.00
2018-12-08T06:37:54.495Z,100014.00
2018-12-08T06:40:29.297Z,100015.00
2018-12-08T06:43:03.949Z,100015.00
2018-12-08T06:45:38.086Z,100025.00
2018-12-08T06:48:12.156Z,100036.00
2018-12-08T06:53:46.333Z,100013.00
2018-12-08T06:56:20.445Z,100017.00
2018-12-08T06:58:58.317Z,100011.00
2018-12-08T07:01:32.874Z,100014.00
2018-12-08T07:04:04.944Z,100014.00
2018-12-08T07:06:39.000Z,100017.00
2018-12-08T07:09:13.065Z,100016.00
2018-12-08T07:11:47.968Z,100027.00
2018-12-08T07:14:22.410Z,100027.00
2018-12-08T07:16:56.945Z,100015.00
2018-12-08T07:19:30.908Z,100006.00
2018-12-08T07:22:05.418Z,100015.00
2018-12-08T07:29:46.456Z,100014.00
2018-12-08T07:32:20.460Z,100004.00
2018-12-08T07:34:54.887Z,100008.00
2018-12-08T07:37:32.101Z,100007.00
2018-12-08T07:40:07.069Z,100005.00
2018-12-08T07:45:15.285Z,100000.00
2018-12-08T07:48:03.491Z,100000.00
2018-12-08T07:50:37.349Z,99992.00
2018-12-08T07:53:11.339Z,99993.00
2018-12-08T07:55:55.103Z,99992.00
2018-12-08T07:58:27.049Z,99987.00
2018-12-08T08:01:00.989Z,99972.00
2018-12-08T08:03:34.889Z,99976.00
2018-12-08T08:06:09.285Z,99969.00
2018-12-08T08:08:43.654Z,99958.00
2018-12-08T08:11:17.632Z,99960.00
2018-12-08T08:13:51.608Z,99957.00
2018-12-08T08:16:23.785Z,99956.00
2018-12-08T08:18:57.759Z,99950.00
2018-12-08T08:21:31.824Z,99967.00
2018-12-08T08:24:16.568Z,99959.00
2018-12-08T08:29:50.783Z,99965.00
2018-12-08T08:32:24.995Z,99964.00
2018-12-08T08:34:59.321Z,99958.00
2018-12-08T08:37:33.180Z,99964.00
2018-12-08T08:40:09.265Z,99967.00
2018-12-08T08:42:44.875Z,99969.00
2018-12-08T08:45:19.304Z,99968.00
2018-12-08T08:47:54.068Z,99953.00
2018-12-08T08:50:28.052Z,99970.00
2018-12-08T08:53:04.497Z,99962.00
2018-12-08T08:55:38.483Z,99963.00
2018-12-08T08:58:12.786Z,99954.00
2018-12-08T09:00:49.293Z,99972.00
2018-12-08T09:03:30.953Z,99956.00
2018-12-08T09:06:09.152Z,99959.00
2018-12-08T09:08:43.389Z,99961.00
2018-12-08T09:11:17.662Z,99937.00
2018-12-08T09:13:52.169Z,99960.00
2018-12-08T09:16:26.369Z,99967.00
2018-12-08T09:19:00.791Z,99966.00
2018-12-08T09:21:34.948Z,99965.00
2018-12-08T09:24:13.158Z,99945.00
2018-12-08T09:26:47.733Z,99976.00
2018-12-08T09:29:21.894Z,99967.00
2018-12-08T09:31:56.110Z,99960.00
2018-12-08T09:34:30.303Z,99973.00
2018-12-08T09:37:04.412Z,99975.00
2018-12-08T09:39:38.429Z,99966.00
2018-12-08T09:42:12.721Z,99963.00
2018-12-08T09:44:47.086Z,99968.00
2018-12-08T09:47:21.099Z,99981.00
2018-12-08T09:49:55.306Z,99973.00
2018-12-08T09:52:29.445Z,99972.00
2018-12-08T10:02:48.321Z,99978.00
2018-12-08T10:05:43.108Z,99983.00
2018-12-08T10:08:17.271Z,99990.00
2018-12-08T10:11:05.931Z,99995.00
2018-12-08T10:13:40.706Z,100002.00
2018-12-08T10:16:14.645Z,99987.00
2018-12-08T10:18:48.755Z,99996.00
2018-12-08T10:21:23.148Z,99995.00
2018-12-08T10:23:57.313Z,99995.00
2018-12-08T10:26:31.603Z,100001.00
2018-12-08T10:32:05.942Z,100000.00
2018-12-08T10:37:39.947Z,99984.00
2018-12-08T10:40:14.500Z,99990.00
2018-12-08T10:42:49.079Z,100002.00
2018-12-08T10:45:23.269Z,99994.00
2018-12-08T10:48:11.866Z,100013.00
2018-12-08T10:50:45.860Z,100012.00
2018-12-08T10:53:19.889Z,100006.00
2018-12-08T10:55:54.026Z,100005.00
2018-12-08T10:58:26.731Z,100009.00
2018-12-08T11:01:08.696Z,100006.00
2018-12-08T11:11:26.539Z,100005.00
2018-12-08T11:14:13.861Z,100006.00
2018-12-08T11:16:47.715Z,100002.00
2018-12-08T11:19:22.041Z,100011.00
2018-12-08T11:21:56.142Z,100003.00
2018-12-08T11:24:30.333Z,100011.00
2018-12-08T11:27:17.781Z,100013.00
2018-12-08T11:29:55.582Z,100006.00
2018-12-08T11:32:30.407Z,100011.00
2018-12-08T11:35:11.116Z,100004.00
2018-12-08T11:37:42.896Z,100000.00
2018-12-08T11:40:17.467Z,100008.00
2018-12-08T11:42:52.170Z,100008.00
2018-12-08T11:45:26.412Z,100015.00
2018-12-08T11:48:04.775Z,100006.00
2018-12-08T11:50:38.976Z,100011.00
2018-12-08T11:53:12.990Z,100001.00
2018-12-08T11:55:47.213Z,100005.00
2018-12-08T11:58:21.143Z,100005.00
2018-12-08T12:00:55.573Z,100003.00
2018-12-08T12:03:29.526Z,100004.00
2018-12-08T12:06:07.725Z,99999.00
2018-12-08T12:08:42.308Z,99996.00
2018-12-08T12:11:29.735Z,99994.00
2018-12-08T12:14:03.784Z,99988.00
2018-12-08T12:16:37.696Z,99992.00
2018-12-08T12:19:11.877Z,99995.00
2018-12-08T12:21:46.371Z,99999.00
2018-12-08T12:24:20.535Z,99991.00
2018-12-08T12:26:54.496Z,99985.00
2018-12-08T12:29:28.793Z,99982.00
2018-12-08T12:32:03.263Z,99977.00
2018-12-08T12:34:37.442Z,99983.00
2018-12-08T12:37:08.696Z,99992.00
2018-12-08T12:39:42.615Z,99990.00
2018-12-08T12:42:16.801Z,99984.00
2018-12-08T12:44:53.988Z,99988.00
2018-12-08T12:47:28.102Z,99998.00
2018-12-08T12:50:02.158Z,100005.00
2018-12-08T12:52:46.733Z,100003.00
2018-12-08T12:55:20.924Z,100005.00
2018-12-08T12:57:55.276Z,99998.00
2018-12-08T13:00:29.319Z,100008.00
2018-12-08T13:03:03.579Z,100010.00
2018-12-08T13:05:37.744Z,100001.00
2018-12-08T13:08:11.941Z,100013.00
2018-12-08T13:10:53.753Z,100007.00
2018-12-08T13:13:25.679Z,100000.00
2018-12-08T13:49:23.249Z,99983.00
2018-12-08T13:51:57.256Z,99986.00
2018-12-08T13:54:43.158Z,99999.00
2018-12-08T14:00:17.628Z,99977.00
2018-12-08T14:02:53.646Z,99985.00
2018-12-08T14:05:25.442Z,99985.00
2018-12-08T14:07:59.787Z,99988.00
2018-12-08T14:10:34.471Z,99981.00
2018-12-08T14:13:08.454Z,99982.00
2018-12-08T14:15:42.905Z,99975.00
2018-12-08T14:18:17.440Z,99977.00
2018-12-08T14:20:51.328Z,99971.00
2018-12-08T14:23:25.755Z,99970.00
2018-12-08T14:25:59.762Z,99973.00
2018-12-08T14:28:34.378Z,99968.00
2018-12-08T14:31:09.038Z,99965.00
2018-12-08T14:33:43.448Z,99965.00
2018-12-08T14:36:17.578Z,99969.00
2018-12-08T14:38:57.451Z,99956.00
2018-12-08T14:41:31.900Z,99978.00
2018-12-08T14:44:05.932Z,99968.00
2018-12-08T14:46:40.459Z,99968.00
2018-12-08T14:49:14.836Z,99971.00
2018-12-08T14:51:48.774Z,99974.00
2018-12-08T14:54:23.017Z,99973.00
2018-12-08T14:56:57.212Z,99965.00
2018-12-08T14:59:31.405Z,99967.00
2018-12-08T15:02:09.646Z,99965.00
2018-12-08T15:04:57.361Z,99955.00
2018-12-08T15:07:33.007Z,99951.00
2018-12-08T15:10:18.775Z,99957.00
2018-12-08T15:12:53.243Z,99964.00
2018-12-08T15:15:27.261Z,99955.00
2018-12-08T15:18:01.781Z,99952.00
2018-12-08T15:20:36.271Z,99954.00
2018-12-08T15:23:10.604Z,99953.00
2018-12-08T15:25:44.855Z,99949.00
2018-12-08T15:28:19.200Z,99941.00
2018-12-08T15:30:56.097Z,99940.00
2018-12-08T15:33:30.214Z,99938.00
2018-12-08T15:36:04.510Z,99939.00
2018-12-08T15:38:38.732Z,99932.00
2018-12-08T15:41:12.660Z,99929.00
2018-12-08T15:43:46.890Z,99918.00
2018-12-08T15:46:20.720Z,99911.00
2018-12-08T15:48:55.385Z,99907.00
2018-12-08T15:51:29.296Z,99900.00
2018-12-08T15:54:03.375Z,99893.00
2018-12-08T15:56:34.675Z,99898.00
2018-12-08T16:06:46.120Z,99892.00
2018-12-08T16:09:18.136Z,99877.00
2018-12-08T16:11:57.310Z,99873.00
2018-12-08T16:14:31.359Z,99880.00
2018-12-08T16:17:05.487Z,99868.00
2018-12-08T16:19:37.522Z,99864.00
2018-12-08T16:22:11.577Z,99854.00
2018-12-08T16:24:45.950Z,99868.00
2018-12-08T16:27:20.285Z,99862.00
2018-12-08T16:29:54.657Z,99856.00
2018-12-08T16:32:28.864Z,99841.00
2018-12-08T16:35:02.826Z,99846.00
2018-12-08T16:37:36.881Z,99843.00
2018-12-08T16:40:11.166Z,99829.00
2018-12-08T16:42:45.572Z,99821.00
2018-12-08T16:48:23.660Z,99798.00
2018-12-08T16:51:01.675Z,99796.00
2018-12-08T16:53:36.058Z,99786.00
2018-12-08T16:56:16.222Z,99776.00
2018-12-08T16:58:50.516Z,99776.00
2018-12-08T17:01:24.789Z,99776.00
2018-12-08T17:03:56.861Z,99767.00
2018-12-08T17:06:30.921Z,99757.00
2018-12-08T17:11:46.664Z,99744.00
2018-12-08T17:14:21.185Z,99744.00
2018-12-08T17:16:59.239Z,99712.00
2018-12-08T17:19:46.982Z,99711.00
2018-12-08T17:22:26.993Z,99708.00
2018-12-08T17:25:01.159Z,99708.00
2018-12-08T17:27:35.492Z,99694.00
2018-12-08T17:30:09.885Z,99694.00
2018-12-08T17:32:44.152Z,99694.00
2018-12-08T17:35:18.013Z,99678.00
2018-12-08T17:37:52.272Z,99663.00
2018-12-08T17:40:26.522Z,99663.00
2018-12-08T17:43:00.666Z,99661.00
2018-12-08T17:45:40.881Z,99647.00
2018-12-08T17:48:15.027Z,99637.00
2018-12-08T17:50:49.186Z,99630.00
2018-12-08T17:53:23.212Z,99615.00
2018-12-08T17:55:57.273Z,99622.00
2018-12-08T17:58:31.261Z,99608.00
2018-12-08T18:01:02.588Z,99602.00
2018-12-08T18:03:37.895Z,99599.00
2018-12-08T18:06:12.430Z,99599.00
2018-12-08T18:08:59.797Z,99592.00
2018-12-08T18:11:31.820Z,99569.00
2018-12-08T18:14:04.244Z,99540.00
2018-12-08T18:16:38.883Z,99550.00
2018-12-08T18:22:16.238Z,99539.00
2018-12-08T18:24:50.576Z,99534.00
2018-12-08T18:27:27.645Z,99518.00
2018-12-08T18:30:08.608Z,99510.00
2018-12-08T18:32:42.960Z,99493.00
2018-12-08T18:35:16.828Z,99502.00
2018-12-08T18:37:50.982Z,99483.00
2018-12-08T18:40:25.392Z,99486.00
2018-12-08T18:43:00.322Z,99474.00
2018-12-08T18:45:34.446Z,99461.00
2018-12-08T18:48:08.939Z,99447.00
2018-12-08T18:50:42.935Z,99441.00
2018-12-08T18:53:19.798Z,99423.00
2018-12-08T18:55:54.268Z,99413.00
2018-12-08T18:58:28.269Z,99404.00
2018-12-08T19:01:00.571Z,99391.00
2018-12-08T19:03:32.716Z,99378.00
2018-12-08T19:06:06.564Z,99380.00
2018-12-08T19:08:40.802Z,99379.00
2018-12-08T19:11:14.670Z,99355.00
2018-12-08T19:13:48.755Z,99341.00
2018-12-08T19:16:23.710Z,99321.00
2018-12-08T19:19:03.024Z,99320.00
2018-12-08T19:21:36.282Z,99323.00
2018-12-08T19:24:11.049Z,99312.00
2018-12-08T19:26:45.527Z,99312.00
2018-12-08T19:29:19.754Z,99289.00
2018-12-08T19:31:53.680Z,99277.00
2018-12-08T19:34:31.058Z,99275.00
2018-12-08T19:37:05.300Z,99263.00
2018-12-08T19:39:39.636Z,99255.00
2018-12-08T19:42:27.062Z,99247.00
2018-12-08T19:45:01.716Z,99256.00
2018-12-08T19:47:36.022Z,99253.00
2018-12-08T19:50:10.373Z,99239.00
2018-12-08T19:52:44.516Z,99228.00
2018-12-08T19:55:21.718Z,99234.00
2018-12-08T19:57:55.761Z,99250.00
2018-12-08T20:00:31.436Z,99234.00
2018-12-08T20:03:05.957Z,99217.00
2018-12-08T20:05:40.002Z,99249.00
2018-12-08T20:08:14.304Z,99315.00
2018-12-08T20:10:48.220Z,99287.00
2018-12-08T20:13:22.267Z,99254.00
2018-12-08T20:15:56.224Z,99215.00
2018-12-08T20:18:30.436Z,99209.00
2018-12-08T20:21:04.343Z,99201.00
2018-12-08T20:23:37.631Z,99173.00
2018-12-08T20:26:15.543Z,99168.00
2018-12-08T20:28:49.594Z,99158.00
2018-12-08T20:31:23.762Z,99144.00
2018-12-08T21:02:14.403Z,99140.00
2018-12-08T21:04:48.690Z,99131.00
2018-12-08T21:07:26.906Z,99130.00
2018-12-08T21:10:01.136Z,99119.00
2018-12-08T21:12:35.420Z,99131.00
2018-12-08T21:15:09.456Z,99100.00
2018-12-08T21:17:43.465Z,99121.00
2018-12-08T21:20:21.532Z,99126.00
2018-12-08T21:22:55.986Z,99117.00
2018-12-08T21:25:30.387Z,99117.00
2018-12-08T21:28:04.543Z,99117.00
2018-12-08T21:30:42.005Z,99115.00
2018-12-08T21:33:16.583Z,99106.00
2018-12-08T21:35:50.782Z,99117.00
2018-12-08T21:38:24.915Z,99097.00
2018-12-08T21:40:59.199Z,99110.00
2018-12-08T21:43:33.796Z,99113.00
2018-12-08T21:46:07.896Z,99105.00
2018-12-08T21:48:45.020Z,99092.00
2018-12-08T21:51:19.652Z,99106.00
2018-12-08T21:53:53.764Z,99109.00
2018-12-08T21:56:28.137Z,99101.00
2018-12-08T21:59:03.940Z,99109.00
2018-12-08T22:01:42.845Z,99117.00
2018-12-08T22:07:16.606Z,99104.00
2018-12-08T22:09:50.972Z,99103.00
2018-12-08T22:12:25.043Z,99107.00
2018-12-08T22:15:05.220Z,99095.00
2018-12-08T22:17:39.877Z,99095.00
2018-12-08T22:20:11.735Z,99092.00
2018-12-08T22:22:45.659Z,99082.00
2018-12-08T22:25:19.910Z,99069.00
2018-12-08T22:28:00.717Z,99080.00
2018-12-08T22:30:35.167Z,99077.00
2018-12-08T22:33:09.590Z,99083.00
2018-12-08T22:35:43.712Z,99081.00
2018-12-08T22:38:17.910Z,99075.00
2018-12-08T22:40:52.073Z,99083.00
2018-12-08T22:43:26.361Z,99091.00
2018-12-08T22:49:06.625Z,99081.00
2018-12-08T22:51:40.583Z,99090.00
2018-12-08T22:54:14.796Z,99088.00
2018-12-08T22:56:49.072Z,99084.00
2018-12-08T22:59:23.227Z,99073.00
2018-12-08T23:01:57.300Z,99088.00
2018-12-08T23:04:31.551Z,99075.00
2018-12-08T23:07:09.019Z,99067.00
2018-12-08T23:09:43.606Z,99083.00
2018-12-08T23:14:51.295Z,99094.00
2018-12-08T23:17:25.662Z,99085.00
2018-12-08T23:19:59.774Z,99098.00
2018-12-08T23:22:38.885Z,99095.00
2018-12-08T23:25:13.208Z,99100.00
2018-12-08T23:27:47.223Z,99081.00
2018-12-08T23:30:21.494Z,99087.00
2018-12-08T23:33:03.212Z,99081.00
2018-12-08T23:35:37.877Z,99074.00
2018-12-08T23:38:12.189Z,99086.00
2018-12-08T23:40:46.268Z,99080.00
2018-12-08T23:43:20.454Z,99086.00
2018-12-08T23:45:51.792Z,99076.00
2018-12-08T23:48:26.268Z,99087.00
2018-12-08T23:51:00.869Z,99084.00
2018-12-08T23:53:39.180Z,99088.00
2018-12-08T23:56:13.549Z,99102.00
2018-12-08T23:58:48.269Z,99088.00
